Time;durP1;ratioP1;P1;durP2;ratioP2;P2;SDS_P1;SDS_P2;PMS_P1;PMS_P2;Temp;Humidity;BMP_temperature;BMP_pressure;BME280_temperature;BME280_humidity;BME280_pressure;Samples;Min_cycle;Max_cycle;Signal;HPM_P1;HPM_P2
2022/10/03 00:01:24;;;;;;;6.15;2.67;;;13.20;99.90;;;;;;4991582;28;20266;-71
2022/10/03 00:04:16;;;;;;;6.80;2.40;;;13.10;99.90;;;;;;5006251;28;20182;-71
2022/10/03 00:07:15;;;;;;;3.67;2.42;;;13.10;99.90;;;;;;4971401;28;20227;-71
2022/10/03 00:09:58;;;;;;;4.88;2.53;;;13.10;99.90;;;;;;4979240;28;20164;-70
2022/10/03 00:12:58;;;;;;;4.50;2.10;;;13.00;99.90;;;;;;4997300;28;20186;-72
2022/10/03 00:15:44;;;;;;;6.10;2.90;;;13.00;99.90;;;;;;4995699;28;20187;-72
2022/10/03 00:18:18;;;;;;;5.45;2.33;;;13.00;99.90;;;;;;4990534;28;20291;-72
2022/10/03 00:21:15;;;;;;;5.85;2.60;;;12.90;99.90;;;;;;4987663;28;20234;-70
2022/10/03 00:23:43;;;;;;;6.28;3.63;;;12.90;99.90;;;;;;4999241;28;20235;-71
2022/10/03 00:26:54;;;;;;;4.00;2.53;;;12.80;99.90;;;;;;4998733;28;20594;-72
2022/10/03 00:29:36;;;;;;;5.28;2.38;;;12.80;99.90;;;;;;4986341;28;20202;-71
2022/10/03 00:32:12;;;;;;;4.75;2.78;;;12.80;99.90;;;;;;4995659;28;20176;-71
2022/10/03 00:35:19;;;;;;;7.90;2.60;;;12.80;99.90;;;;;;4986769;28;20184;-71
2022/10/03 00:37:57;;;;;;;4.78;2.38;;;12.80;99.90;;;;;;4940323;29;20213;-73
2022/10/03 00:41:03;;;;;;;4.97;2.33;;;12.70;99.90;;;;;;4980388;28;20179;-71
2022/10/03 00:43:49;;;;;;;6.57;2.45;;;12.70;99.90;;;;;;5002863;28;20179;-71
2022/10/03 00:46:35;;;;;;;4.65;2.38;;;12.70;99.90;;;;;;4992898;28;20294;-70
2022/10/03 00:49:33;;;;;;;6.60;2.38;;;12.60;99.90;;;;;;4996670;28;20184;-71
2022/10/03 00:52:20;;;;;;;4.90;2.50;;;12.60;99.90;;;;;;5001757;28;20194;-71
2022/10/03 00:55:33;;;;;;;6.90;2.28;;;12.60;99.90;;;;;;4988080;28;20184;-70
2022/10/03 00:58:09;;;;;;;4.45;2.45;;;12.60;99.90;;;;;;4997483;28;20269;-72
2022/10/03 01:00:34;;;;;;;5.15;2.70;;;12.50;99.90;;;;;;4997742;28;20199;-72
2022/10/03 01:03:19;;;;;;;5.85;2.72;;;12.50;99.90;;;;;;4999405;28;20197;-69
2022/10/03 01:05:59;;;;;;;5.57;2.75;;;12.50;99.90;;;;;;4998429;28;20178;-71
2022/10/03 01:09:09;;;;;;;5.25;2.45;;;12.50;99.90;;;;;;4994366;28;20167;-70
2022/10/03 01:11:56;;;;;;;4.05;2.38;;;12.50;99.90;;;;;;4990257;28;20178;-71
2022/10/03 01:14:55;;;;;;;6.18;2.53;;;12.40;99.90;;;;;;5001520;28;20176;-72
2022/10/03 01:17:31;;;;;;;5.53;2.58;;;12.40;99.90;;;;;;4996129;28;20251;-71
2022/10/03 01:20:13;;;;;;;5.47;2.28;;;12.40;99.90;;;;;;5006241;28;20207;-69
2022/10/03 01:23:10;;;;;;;5.15;2.70;;;12.40;99.90;;;;;;4998523;28;20172;-70
2022/10/03 01:25:55;;;;;;;4.97;2.35;;;12.40;99.90;;;;;;4995190;28;20191;-70
2022/10/03 01:31:26;;;;;;;7.15;2.53;;;12.30;99.90;;;;;;4998904;28;20242;-70
2022/10/03 01:33:57;;;;;;;5.95;2.53;;;12.30;99.90;;;;;;5014160;28;20240;-70
2022/10/03 01:36:50;;;;;;;5.00;2.92;;;12.30;99.90;;;;;;4998675;28;20175;-69
2022/10/03 01:39:49;;;;;;;3.80;2.30;;;12.30;99.90;;;;;;4992928;28;20237;-70
2022/10/03 01:42:57;;;;;;;6.40;2.33;;;12.30;99.90;;;;;;4992387;28;20179;-69
2022/10/03 01:45:36;;;;;;;2.80;2.13;;;12.20;99.90;;;;;;4971894;28;20468;-70
2022/10/03 01:48:14;;;;;;;4.60;2.15;;;12.20;99.90;;;;;;4997231;28;20217;-69
2022/10/03 01:50:58;;;;;;;5.60;2.42;;;12.20;99.90;;;;;;4991489;28;20195;-70
2022/10/03 01:53:42;;;;;;;7.00;2.38;;;12.20;99.90;;;;;;5002763;28;20205;-69
2022/10/03 01:56:28;;;;;;;5.45;2.20;;;12.10;99.90;;;;;;5005643;28;20197;-69
2022/10/03 01:59:10;;;;;;;4.55;2.00;;;12.10;99.90;;;;;;4992951;28;20211;-69
2022/10/03 02:02:20;;;;;;;3.55;2.08;;;12.10;99.90;;;;;;4997912;28;20171;-69
2022/10/03 02:05:02;;;;;;;7.00;2.28;;;12.10;99.90;;;;;;5003826;28;20184;-70
2022/10/03 02:07:53;;;;;;;4.88;2.05;;;12.00;99.90;;;;;;4983808;28;20163;-70
2022/10/03 02:10:27;;;;;;;5.10;1.98;;;12.00;99.90;;;;;;4998806;28;20175;-70
2022/10/03 02:13:12;;;;;;;6.15;2.10;;;12.00;99.90;;;;;;5001282;28;20199;-70
2022/10/03 02:15:59;;;;;;;6.47;2.20;;;12.00;99.90;;;;;;5000964;28;20168;-69
2022/10/03 02:18:44;;;;;;;4.60;2.45;;;12.00;99.90;;;;;;4999721;28;20183;-70
2022/10/03 02:21:23;;;;;;;4.63;2.60;;;12.00;99.90;;;;;;4996701;28;20175;-71
2022/10/03 02:24:07;;;;;;;6.75;2.15;;;12.00;99.90;;;;;;4997063;28;20171;-70
2022/10/03 02:26:53;;;;;;;5.25;2.15;;;12.00;99.90;;;;;;4993373;28;20195;-70
2022/10/03 02:29:24;;;;;;;3.60;2.15;;;12.00;99.90;;;;;;4996895;28;20230;-70
2022/10/03 02:32:05;;;;;;;3.97;2.33;;;12.00;99.90;;;;;;5004528;28;20272;-70
2022/10/03 02:34:47;;;;;;;5.05;2.13;;;12.00;99.90;;;;;;4992199;28;20225;-70
2022/10/03 02:37:32;;;;;;;5.00;2.13;;;12.10;99.90;;;;;;4997986;28;20176;-70
2022/10/03 02:40:04;;;;;;;3.97;2.40;;;12.00;99.90;;;;;;4998336;28;20164;-70
2022/10/03 02:42:51;;;;;;;3.92;2.30;;;12.00;99.90;;;;;;4987121;28;20212;-70
2022/10/03 02:45:45;;;;;;;2.83;2.20;;;12.00;99.90;;;;;;4995902;28;20262;-70
2022/10/03 02:48:35;;;;;;;3.83;2.00;;;12.00;99.90;;;;;;4984765;28;20278;-70
2022/10/03 02:51:12;;;;;;;3.72;2.13;;;12.00;99.90;;;;;;4977287;28;20202;-70
2022/10/03 02:53:57;;;;;;;4.50;1.98;;;12.00;99.90;;;;;;4999167;28;20178;-70
2022/10/03 02:57:01;;;;;;;5.72;2.20;;;12.00;99.90;;;;;;4992066;28;20183;-70
2022/10/03 03:00:01;;;;;;;4.28;2.30;;;12.00;99.90;;;;;;5012986;28;20264;-70
2022/10/03 03:02:35;;;;;;;4.30;2.30;;;12.10;99.90;;;;;;5008603;28;20204;-70
2022/10/03 03:05:30;;;;;;;6.38;2.33;;;12.10;99.90;;;;;;4986359;28;20199;-70
2022/10/03 03:08:13;;;;;;;4.32;2.10;;;12.10;99.90;;;;;;5013221;28;20221;-70
2022/10/03 03:11:08;;;;;;;4.03;2.35;;;12.10;99.90;;;;;;4998922;28;20194;-70
2022/10/03 03:14:08;;;;;;;4.45;2.05;;;12.10;99.90;;;;;;4992871;28;20192;-71
2022/10/03 03:16:51;;;;;;;3.45;1.83;;;12.10;99.90;;;;;;4996207;28;20262;-70
2022/10/03 03:19:34;;;;;;;4.00;2.13;;;12.10;99.90;;;;;;4995713;28;20206;-71
2022/10/03 03:22:31;;;;;;;5.38;2.25;;;12.10;99.90;;;;;;4996170;28;20241;-71
2022/10/03 03:25:12;;;;;;;4.55;2.15;;;12.10;99.90;;;;;;4995786;28;20199;-70
2022/10/03 03:28:19;;;;;;;4.50;2.20;;;12.20;99.90;;;;;;5001232;28;20167;-70
2022/10/03 03:31:17;;;;;;;6.03;2.08;;;12.20;99.90;;;;;;4993207;28;20189;-70
2022/10/03 03:33:55;;;;;;;5.72;1.83;;;12.20;99.90;;;;;;5010915;28;20205;-71
2022/10/03 03:36:32;;;;;;;4.68;2.10;;;12.20;99.90;;;;;;5016557;28;20212;-70
2022/10/03 03:39:12;;;;;;;5.03;2.28;;;12.20;99.90;;;;;;4989511;28;20242;-70
2022/10/03 03:42:11;;;;;;;4.10;1.92;;;12.20;99.90;;;;;;4996586;28;20175;-71
2022/10/03 03:44:53;;;;;;;5.00;1.80;;;12.10;99.90;;;;;;4993631;28;20188;-71
2022/10/03 03:47:31;;;;;;;4.57;2.00;;;12.10;99.90;;;;;;4998341;28;20195;-69
2022/10/03 03:50:10;;;;;;;3.50;1.88;;;12.10;99.90;;;;;;4977596;28;20262;-70
2022/10/03 03:53:01;;;;;;;4.13;2.05;;;12.10;99.90;;;;;;4987477;28;20230;-71
2022/10/03 03:55:56;;;;;;;3.92;1.95;;;12.10;99.90;;;;;;4999054;28;20474;-70
2022/10/03 03:58:50;;;;;;;5.55;2.20;;;12.10;99.90;;;;;;4972311;28;20220;-71
2022/10/03 04:01:37;;;;;;;4.15;2.42;;;12.10;99.90;;;;;;4989708;28;20190;-70
2022/10/03 04:04:12;;;;;;;3.80;1.90;;;12.20;99.90;;;;;;5001214;28;20194;-70
2022/10/03 04:06:47;;;;;;;5.60;2.17;;;12.20;99.90;;;;;;5015412;28;20171;-70
2022/10/03 04:09:24;;;;;;;3.80;1.92;;;12.20;99.90;;;;;;5012937;28;20494;-70
2022/10/03 04:11:56;;;;;;;4.93;2.30;;;12.20;99.90;;;;;;4998041;28;20206;-70
2022/10/03 04:14:34;;;;;;;3.85;1.98;;;12.20;99.90;;;;;;5015534;28;20222;-70
2022/10/03 04:20:10;;;;;;;5.63;1.90;;;12.30;99.90;;;;;;5000089;28;20198;-71
2022/10/03 04:22:54;;;;;;;3.80;1.80;;;12.30;99.90;;;;;;5015326;28;20171;-71
2022/10/03 04:25:38;;;;;;;3.03;1.85;;;12.30;99.90;;;;;;5014275;28;20199;-70
2022/10/03 04:28:38;;;;;;;4.22;1.80;;;12.40;99.90;;;;;;4995874;28;20203;-71
2022/10/03 04:31:20;;;;;;;3.35;2.20;;;12.40;99.90;;;;;;4985993;28;20203;-70
2022/10/03 04:34:00;;;;;;;7.10;2.22;;;12.40;99.90;;;;;;4981943;28;20195;-70
2022/10/03 04:36:53;;;;;;;3.70;2.00;;;12.40;99.90;;;;;;4990133;28;20180;-70
2022/10/03 04:39:33;;;;;;;4.68;1.90;;;12.40;99.90;;;;;;5000964;28;20203;-70
2022/10/03 04:42:22;;;;;;;6.75;1.92;;;12.40;99.90;;;;;;5001682;28;20261;-70
2022/10/03 04:45:30;;;;;;;4.22;1.83;;;12.40;99.90;;;;;;4998434;28;20199;-71
2022/10/03 04:48:27;;;;;;;3.28;1.60;;;12.40;99.90;;;;;;4996978;28;20211;-71
2022/10/03 04:51:14;;;;;;;6.00;1.75;;;12.40;99.90;;;;;;5007602;28;20184;-70
2022/10/03 04:54:01;;;;;;;4.57;1.83;;;12.40;99.90;;;;;;4993609;28;20186;-70
2022/10/03 04:56:57;;;;;;;2.83;1.70;;;12.40;99.90;;;;;;5004283;28;20191;-71
2022/10/03 04:59:49;;;;;;;4.22;1.90;;;12.40;99.90;;;;;;4993375;28;20282;-70
2022/10/03 05:02:32;;;;;;;5.97;2.03;;;12.40;99.90;;;;;;4996961;28;20214;-74
2022/10/03 05:05:22;;;;;;;5.43;1.90;;;12.40;99.90;;;;;;4996825;28;20230;-73
2022/10/03 05:07:47;;;;;;;3.17;1.75;;;12.30;99.90;;;;;;4996804;28;20270;-74
2022/10/03 05:10:46;;;;;;;5.25;1.98;;;12.30;99.90;;;;;;4993768;28;20267;-74
2022/10/03 05:13:31;;;;;;;5.88;1.92;;;12.30;99.90;;;;;;5000109;28;20326;-74
2022/10/03 05:16:22;;;;;;;3.35;2.00;;;12.30;99.90;;;;;;4996199;28;20183;-75
2022/10/03 05:18:56;;;;;;;3.95;2.00;;;12.40;99.90;;;;;;4985809;28;20214;-74
2022/10/03 05:21:54;;;;;;;3.40;1.80;;;12.40;99.90;;;;;;5003609;28;20184;-73
2022/10/03 05:24:52;;;;;;;4.38;2.03;;;12.30;99.90;;;;;;4983264;28;20285;-73
2022/10/03 05:27:23;;;;;;;4.38;1.70;;;12.40;99.90;;;;;;4986601;28;20193;-73
2022/10/03 05:30:07;;;;;;;5.18;1.73;;;12.40;99.90;;;;;;4982169;28;20247;-74
2022/10/03 05:32:51;;;;;;;13.80;5.88;;;12.40;99.90;;;;;;4996246;28;20196;-73
2022/10/03 05:35:23;;;;;;;14.32;10.20;;;12.40;99.90;;;;;;5013405;28;20269;-74
2022/10/03 05:38:15;;;;;;;11.63;6.85;;;12.40;99.90;;;;;;4995641;28;20203;-74
2022/10/03 05:41:01;;;;;;;6.88;4.82;;;12.40;99.90;;;;;;4993488;28;20277;-74
2022/10/03 05:43:44;;;;;;;6.60;3.83;;;12.40;99.90;;;;;;4985631;28;20233;-75
2022/10/03 05:46:19;;;;;;;9.20;3.25;;;12.30;99.90;;;;;;5011893;28;20171;-73
2022/10/03 05:49:05;;;;;;;51.72;34.70;;;12.30;99.90;;;;;;5012826;28;20178;-74
2022/10/03 05:51:48;;;;;;;21.48;15.60;;;12.30;99.90;;;;;;4992727;28;20290;-76
2022/10/03 05:54:47;;;;;;;11.68;9.15;;;12.30;99.90;;;;;;4986176;28;20262;-74
2022/10/03 05:57:40;;;;;;;8.15;5.70;;;12.30;99.90;;;;;;4996897;28;20208;-71
2022/10/03 06:00:27;;;;;;;5.88;4.55;;;12.20;99.90;;;;;;4993627;28;20171;-73
2022/10/03 06:03:10;;;;;;;4.82;3.45;;;12.20;99.90;;;;;;4977236;28;20175;-74
2022/10/03 06:05:39;;;;;;;7.47;2.88;;;12.20;99.90;;;;;;4993173;28;20247;-74
2022/10/03 06:08:23;;;;;;;4.47;2.53;;;12.10;99.90;;;;;;4983274;28;20190;-74
2022/10/03 06:11:11;;;;;;;5.05;2.60;;;12.20;99.90;;;;;;4995892;28;20204;-71
2022/10/03 06:14:02;;;;;;;4.75;2.45;;;12.20;99.90;;;;;;4986464;28;20230;-74
2022/10/03 06:16:57;;;;;;;4.63;2.35;;;12.20;99.90;;;;;;4978123;28;20210;-71
2022/10/03 06:19:37;;;;;;;6.00;2.60;;;12.20;99.90;;;;;;4995724;28;20191;-75
2022/10/03 06:22:49;;;;;;;5.60;2.28;;;12.20;99.90;;;;;;4996160;28;20214;-74
2022/10/03 06:25:33;;;;;;;7.28;3.92;;;12.20;99.90;;;;;;4996589;28;20225;-74
2022/10/03 06:28:14;;;;;;;6.40;3.60;;;12.20;99.90;;;;;;4986656;28;20204;-75
2022/10/03 06:31:15;;;;;;;5.28;3.20;;;12.20;99.90;;;;;;4996658;28;20261;-74
2022/10/03 06:34:17;;;;;;;6.35;3.10;;;12.20;99.90;;;;;;5000417;28;20175;-74
2022/10/03 06:37:07;;;;;;;6.55;3.00;;;12.20;99.90;;;;;;4990549;28;20211;-74
2022/10/03 06:39:50;;;;;;;5.20;2.70;;;12.20;99.90;;;;;;4989453;28;20231;-74
2022/10/03 06:42:35;;;;;;;4.55;2.80;;;12.20;99.90;;;;;;4984155;28;20172;-74
2022/10/03 06:45:10;;;;;;;7.90;3.90;;;12.30;99.90;;;;;;5012109;28;20198;-75
2022/10/03 06:48:20;;;;;;;3.67;2.40;;;12.30;99.90;;;;;;4995443;28;20187;-74
2022/10/03 06:51:23;;;;;;;4.68;2.03;;;12.40;99.90;;;;;;4967197;28;20211;-75
2022/10/03 06:54:06;;;;;;;4.28;2.22;;;12.40;99.90;;;;;;4984733;28;20211;-75
2022/10/03 06:56:55;;;;;;;7.00;2.30;;;12.50;99.90;;;;;;4995313;28;20203;-74
2022/10/03 06:59:46;;;;;;;4.22;2.03;;;12.60;99.90;;;;;;5002097;28;20227;-74
2022/10/03 07:02:26;;;;;;;4.30;2.05;;;12.60;99.90;;;;;;5004024;28;20188;-74
2022/10/03 07:05:34;;;;;;;4.50;1.88;;;12.70;99.90;;;;;;4995253;28;20194;-74
2022/10/03 07:08:19;;;;;;;5.88;2.50;;;12.80;99.90;;;;;;5013134;28;20205;-74
2022/10/03 07:11:03;;;;;;;4.70;2.08;;;12.90;99.90;;;;;;4991894;28;20191;-74
2022/10/03 07:13:49;;;;;;;5.05;2.13;;;13.00;99.90;;;;;;4976029;28;20182;-73
2022/10/03 07:16:23;;;;;;;5.70;2.10;;;13.00;99.90;;;;;;4975820;28;20318;-73
2022/10/03 07:19:06;;;;;;;4.60;1.92;;;13.10;99.90;;;;;;4993038;28;20211;-73
2022/10/03 07:21:38;;;;;;;6.32;2.05;;;13.10;99.90;;;;;;4980748;28;20212;-74
2022/10/03 07:24:43;;;;;;;5.60;2.60;;;13.10;99.90;;;;;;4992059;28;20380;-69
2022/10/03 07:27:24;;;;;;;6.28;2.30;;;13.20;99.90;;;;;;4940644;28;20204;-70
2022/10/03 07:29:52;;;;;;;6.95;2.70;;;13.30;99.90;;;;;;4983297;28;20186;-70
2022/10/03 07:32:36;;;;;;;8.15;2.83;;;13.30;99.90;;;;;;4994320;28;20270;-70
2022/10/03 07:35:07;;;;;;;6.45;2.20;;;13.40;99.90;;;;;;4991256;28;20237;-70
2022/10/03 07:40:46;;;;;;;5.35;2.40;;;13.50;99.90;;;;;;4976007;28;20205;-70
2022/10/03 07:43:54;;;;;;;6.70;2.42;;;13.60;99.90;;;;;;5004093;28;20187;-70
2022/10/03 07:46:32;;;;;;;7.35;2.40;;;13.60;99.90;;;;;;4994929;28;20305;-70
2022/10/03 07:48:58;;;;;;;6.93;2.50;;;13.70;99.90;;;;;;4990949;28;20179;-67
2022/10/03 07:51:34;;;;;;;9.05;2.65;;;13.80;99.90;;;;;;4990008;28;20179;-70
2022/10/03 07:54:28;;;;;;;5.43;2.70;;;13.90;99.90;;;;;;5008941;28;20202;-70
2022/10/03 07:57:21;;;;;;;10.00;2.70;;;14.00;99.90;;;;;;4987787;28;20192;-70
2022/10/03 08:00:09;;;;;;;6.45;2.65;;;14.10;99.90;;;;;;4981494;28;20219;-76
2022/10/03 08:02:41;;;;;;;7.75;2.47;;;14.20;99.90;;;;;;4975138;28;20171;-76
2022/10/03 08:05:45;;;;;;;5.40;2.50;;;14.40;99.90;;;;;;4988387;28;20195;-76
2022/10/03 08:08:49;;;;;;;5.18;2.67;;;14.40;99.90;;;;;;4995078;28;20298;-74
2022/10/03 08:11:26;;;;;;;6.50;2.47;;;14.50;99.90;;;;;;4976703;28;20200;-77
2022/10/03 08:14:36;;;;;;;5.72;2.25;;;14.60;99.90;;;;;;4975822;28;20172;-75
2022/10/03 08:17:31;;;;;;;4.78;2.42;;;14.70;99.90;;;;;;4984243;28;20250;-74
2022/10/03 08:20:12;;;;;;;6.13;2.45;;;14.80;99.90;;;;;;4994828;28;20191;-72
2022/10/03 08:23:08;;;;;;;5.57;2.10;;;14.80;99.90;;;;;;4995033;28;21274;-72
2022/10/03 08:25:52;;;;;;;6.07;2.83;;;14.80;99.90;;;;;;4991090;28;20520;-77
2022/10/03 08:28:40;;;;;;;6.15;2.63;;;14.90;99.90;;;;;;4994523;28;20179;-80
2022/10/03 08:31:08;;;;;;;7.55;2.53;;;14.90;99.90;;;;;;5004138;28;20215;-80
2022/10/03 08:33:46;;;;;;;9.80;2.55;;;14.90;99.90;;;;;;4993248;28;20195;-73
2022/10/03 08:36:30;;;;;;;10.13;3.42;;;14.90;99.90;;;;;;4994727;28;20194;-74
2022/10/03 08:39:21;;;;;;;5.10;2.65;;;14.90;99.90;;;;;;4994608;28;20195;-74
2022/10/03 08:42:10;;;;;;;5.05;2.40;;;14.90;99.90;;;;;;4999663;28;20281;-76
2022/10/03 08:44:48;;;;;;;5.70;2.13;;;14.90;99.90;;;;;;4989225;28;20382;-73
2022/10/03 08:47:19;;;;;;;5.60;2.35;;;15.00;99.90;;;;;;4997550;28;20198;-79
2022/10/03 08:49:54;;;;;;;8.75;2.83;;;15.10;99.90;;;;;;4998534;28;20186;-76
2022/10/03 08:52:44;;;;;;;8.10;3.80;;;15.10;99.90;;;;;;4997062;28;20185;-73
2022/10/03 08:55:18;;;;;;;6.55;3.22;;;15.10;99.90;;;;;;5011742;28;20195;-78
2022/10/03 08:58:12;;;;;;;5.97;2.80;;;15.20;99.90;;;;;;4993788;28;20221;-76
2022/10/03 09:00:40;;;;;;;6.63;3.03;;;15.40;99.90;;;;;;4997635;28;20222;-79
2022/10/03 09:03:30;;;;;;;7.05;2.67;;;15.50;99.90;;;;;;4992047;28;20194;-78
2022/10/03 09:05:58;;;;;;;7.05;3.20;;;15.60;99.90;;;;;;4996111;28;20187;-76
2022/10/03 09:08:27;;;;;;;9.20;3.03;;;15.80;99.90;;;;;;4983963;28;20186;-79
2022/10/03 09:11:01;;;;;;;5.35;2.50;;;16.00;99.90;;;;;;4997342;28;20187;-76
2022/10/03 09:14:06;;;;;;;5.63;2.47;;;16.10;99.90;;;;;;4997002;28;20196;-77
2022/10/03 09:16:43;;;;;;;6.82;2.83;;;16.20;99.90;;;;;;4983325;28;20195;-73
2022/10/03 09:19:24;;;;;;;6.13;2.58;;;16.30;99.90;;;;;;4990712;28;20264;-76
2022/10/03 09:22:28;;;;;;;5.72;2.47;;;16.50;99.90;;;;;;5011593;28;20183;-80
2022/10/03 09:25:28;;;;;;;8.02;2.97;;;16.60;99.90;;;;;;4990293;28;20179;-78
2022/10/03 09:28:16;;;;;;;3.92;2.10;;;16.90;99.90;;;;;;4977997;28;20408;-76
2022/10/03 09:30:53;;;;;;;5.80;2.55;;;17.30;99.90;;;;;;4978521;28;20176;-75
2022/10/03 09:33:41;;;;;;;5.70;2.00;;;17.60;99.90;;;;;;4984074;28;20203;-77
2022/10/03 09:36:12;;;;;;;6.32;2.40;;;17.90;99.90;;;;;;4997229;28;20179;-75
2022/10/03 09:39:20;;;;;;;7.22;2.50;;;17.90;99.90;;;;;;4994013;28;20230;-72
2022/10/03 09:42:23;;;;;;;3.88;1.95;;;18.00;99.90;;;;;;4984320;28;20171;-74
2022/10/03 09:45:03;;;;;;;9.93;2.35;;;18.00;99.90;;;;;;4983184;28;20270;-75
2022/10/03 09:47:54;;;;;;;9.38;2.70;;;18.00;99.90;;;;;;4990852;28;20187;-76
2022/10/03 09:50:54;;;;;;;7.55;2.72;;;18.20;99.90;;;;;;5001210;28;20178;-76
2022/10/03 09:53:35;;;;;;;6.75;2.58;;;18.60;99.90;;;;;;4988981;28;20183;-73
2022/10/03 09:56:21;;;;;;;7.85;2.25;;;18.70;99.90;;;;;;4996892;28;20175;-75
2022/10/03 09:59:01;;;;;;;6.00;2.42;;;18.70;99.90;;;;;;4993040;28;20261;-76
2022/10/03 10:01:47;;;;;;;5.20;2.17;;;18.60;99.90;;;;;;4977461;28;20204;-74
2022/10/03 10:04:33;;;;;;;5.97;1.92;;;18.50;99.90;;;;;;4979642;28;20176;-75
2022/10/03 10:07:36;;;;;;;4.53;2.05;;;18.50;99.90;;;;;;4997902;28;20187;-77
2022/10/03 10:10:35;;;;;;;4.53;2.00;;;18.70;99.90;;;;;;5012719;28;20167;-77
2022/10/03 10:13:15;;;;;;;4.55;1.88;;;19.20;99.90;;;;;;5003140;28;20175;-76
2022/10/03 10:16:14;;;;;;;6.45;1.83;;;19.40;99.90;;;;;;4996630;28;20226;-78
2022/10/03 10:19:18;;;;;;;6.03;1.90;;;19.60;99.90;;;;;;4995128;28;20239;-73
2022/10/03 10:22:21;;;;;;;9.65;4.47;;;19.70;99.90;;;;;;5012677;28;20167;-74
2022/10/03 10:25:23;;;;;;;4.85;2.67;;;19.80;99.90;;;;;;4987654;28;20195;-74
2022/10/03 10:28:01;;;;;;;5.22;2.05;;;19.90;99.90;;;;;;4995132;28;20237;-75
2022/10/03 10:30:53;;;;;;;5.03;1.98;;;19.90;99.90;;;;;;4995443;28;20290;-73
2022/10/03 10:33:47;;;;;;;5.28;1.50;;;19.80;99.90;;;;;;4978103;28;20231;-76
2022/10/03 10:36:31;;;;;;;4.20;1.52;;;19.70;99.90;;;;;;4967599;28;20183;-75
2022/10/03 10:39:15;;;;;;;3.80;1.13;;;19.50;99.90;;;;;;4986135;28;20201;-71
2022/10/03 10:42:20;;;;;;;4.07;1.58;;;19.30;99.90;;;;;;5003977;28;20180;-75
2022/10/03 10:44:45;;;;;;;3.33;1.45;;;19.10;99.90;;;;;;5005305;28;20240;-74
2022/10/03 10:47:23;;;;;;;4.28;1.40;;;19.10;99.90;;;;;;5017105;28;20190;-75
2022/10/03 10:50:10;;;;;;;3.22;1.63;;;19.10;99.90;;;;;;5002563;28;20218;-74
2022/10/03 10:53:08;;;;;;;4.63;1.95;;;19.30;99.90;;;;;;5007286;28;20203;-72
2022/10/03 10:55:54;;;;;;;4.03;1.85;;;19.40;99.90;;;;;;4982251;28;20250;-76
2022/10/03 10:58:51;;;;;;;7.35;1.80;;;19.50;99.90;;;;;;5001169;28;20211;-75
2022/10/03 11:01:37;;;;;;;3.75;1.75;;;19.60;99.90;;;;;;4993780;28;20188;-77
2022/10/03 11:04:51;;;;;;;3.67;1.30;;;19.80;99.90;;;;;;4978468;28;20182;-74
2022/10/03 11:07:41;;;;;;;2.50;1.38;;;19.90;99.90;;;;;;4966570;28;20208;-76
2022/10/03 11:10:32;;;;;;;2.83;1.45;;;20.20;99.90;;;;;;4979525;28;20188;-75
2022/10/03 11:13:07;;;;;;;6.22;1.38;;;20.40;99.90;;;;;;4995710;28;20230;-73
2022/10/03 11:16:05;;;;;;;3.38;1.48;;;20.60;99.90;;;;;;4998770;28;20193;-74
2022/10/03 11:18:55;;;;;;;4.20;1.10;;;20.70;99.90;;;;;;4973598;28;20210;-73
2022/10/03 11:21:38;;;;;;;3.83;1.63;;;20.90;99.90;;;;;;5002181;28;20199;-72
2022/10/03 11:24:49;;;;;;;3.45;1.25;;;21.00;99.90;;;;;;4991882;28;20230;-75
2022/10/03 11:27:23;;;;;;;2.78;1.50;;;21.10;99.90;;;;;;4995152;28;20234;-74
2022/10/03 11:30:20;;;;;;;3.70;1.48;;;21.20;99.90;;;;;;4987096;28;20180;-75
2022/10/03 11:33:10;;;;;;;3.63;1.42;;;21.20;99.90;;;;;;4990358;28;20311;-75
2022/10/03 11:35:57;;;;;;;4.25;1.25;;;21.20;99.90;;;;;;4994640;28;20230;-76
2022/10/03 11:38:24;;;;;;;3.90;1.42;;;21.30;99.90;;;;;;4997170;28;20267;-75
2022/10/03 11:41:01;;;;;;;2.65;1.00;;;21.40;99.90;;;;;;5005002;28;20171;-77
2022/10/03 11:43:52;;;;;;;3.67;1.50;;;21.50;99.90;;;;;;4994933;28;20289;-74
2022/10/03 11:46:40;;;;;;;3.63;1.23;;;21.50;99.90;;;;;;5012980;28;20205;-75
2022/10/03 11:49:27;;;;;;;1.55;0.80;;;21.40;99.90;;;;;;5000201;28;20159;-71
2022/10/03 11:52:18;;;;;;;4.55;1.10;;;21.20;99.90;;;;;;5001917;28;20210;-75
2022/10/03 11:54:48;;;;;;;1.95;1.00;;;21.00;99.90;;;;;;4994797;28;20192;-75
2022/10/03 11:57:27;;;;;;;2.97;1.38;;;20.80;99.90;;;;;;4975499;28;20203;-74
2022/10/03 11:59:57;;;;;;;2.78;1.05;;;20.50;99.90;;;;;;4981986;28;20587;-73
2022/10/03 12:02:53;;;;;;;6.40;3.15;;;20.40;99.90;;;;;;5015651;28;20313;-75
2022/10/03 12:09:03;;;;;;;6.20;3.05;;;20.20;99.90;;;;;;4986032;28;20194;-73
2022/10/03 12:11:40;;;;;;;3.35;1.95;;;20.30;99.90;;;;;;4994921;28;20294;-74
2022/10/03 12:14:13;;;;;;;4.25;1.52;;;20.40;99.90;;;;;;4998316;28;20175;-73
2022/10/03 12:17:01;;;;;;;5.30;1.50;;;20.40;99.90;;;;;;4987288;28;20255;-74
2022/10/03 12:19:39;;;;;;;7.07;1.33;;;20.40;99.90;;;;;;4999545;28;20216;-73
2022/10/03 12:22:23;;;;;;;2.40;1.17;;;20.50;99.90;;;;;;4980408;28;20172;-73
2022/10/03 12:24:57;;;;;;;3.03;1.17;;;20.50;99.90;;;;;;4988310;28;20238;-74
2022/10/03 12:27:49;;;;;;;4.82;1.20;;;20.50;99.90;;;;;;5015804;28;20199;-74
2022/10/03 12:30:17;;;;;;;2.05;0.93;;;20.50;99.90;;;;;;5002771;28;20170;-74
2022/10/03 12:33:21;;;;;;;5.15;1.58;;;20.50;99.90;;;;;;4996938;28;20176;-73
2022/10/03 12:36:02;;;;;;;3.53;1.10;;;20.40;99.90;;;;;;4999422;28;20176;-72
2022/10/03 12:38:32;;;;;;;3.00;1.10;;;20.40;99.90;;;;;;5013087;28;20202;-74
2022/10/03 12:41:04;;;;;;;4.88;1.10;;;20.30;99.90;;;;;;5003106;28;20192;-75
2022/10/03 12:44:06;;;;;;;3.60;1.08;;;20.20;99.90;;;;;;4999230;28;20168;-74
2022/10/03 12:47:17;;;;;;;2.42;1.20;;;20.20;99.90;;;;;;4980644;28;20184;-74
2022/10/03 12:50:01;;;;;;;1.85;1.00;;;20.10;99.90;;;;;;4982410;28;20183;-75
2022/10/03 12:52:36;;;;;;;3.08;0.90;;;20.10;99.90;;;;;;5005842;28;20282;-74
2022/10/03 12:55:28;;;;;;;3.08;0.93;;;20.00;99.90;;;;;;4997607;28;20199;-77
2022/10/03 12:58:36;;;;;;;3.03;1.30;;;19.90;99.90;;;;;;4992737;28;20484;-79
2022/10/03 13:01:01;;;;;;;2.58;0.77;;;19.90;99.90;;;;;;4974562;28;20270;-73
2022/10/03 13:03:50;;;;;;;1.95;0.95;;;19.90;99.90;;;;;;4991792;28;20291;-74
2022/10/03 13:06:41;;;;;;;2.33;0.80;;;20.00;99.90;;;;;;4988008;28;20186;-73
2022/10/03 13:09:15;;;;;;;3.15;1.10;;;20.30;99.90;;;;;;4978066;28;20207;-71
2022/10/03 13:11:55;;;;;;;2.42;1.05;;;20.50;99.90;;;;;;4991394;28;20167;-75
2022/10/03 13:14:42;;;;;;;1.98;1.00;;;20.70;99.90;;;;;;5011027;28;20171;-75
2022/10/03 13:17:14;;;;;;;2.78;1.20;;;20.90;99.90;;;;;;4998621;28;20208;-73
2022/10/03 13:20:13;;;;;;;2.72;0.88;;;21.00;99.90;;;;;;4996953;28;20443;-71
2022/10/03 13:23:03;;;;;;;2.72;1.05;;;21.10;99.90;;;;;;4981139;28;20287;-74
2022/10/03 13:25:45;;;;;;;4.13;1.20;;;21.10;99.90;;;;;;5006257;28;20206;-76
2022/10/03 13:28:33;;;;;;;4.50;1.00;;;21.10;99.90;;;;;;5000925;28;20207;-74
2022/10/03 13:31:10;;;;;;;2.22;1.23;;;21.10;99.90;;;;;;4993046;28;20241;-78
2022/10/03 13:33:44;;;;;;;3.65;1.20;;;21.10;99.90;;;;;;4994748;28;20179;-76
2022/10/03 13:36:22;;;;;;;4.63;1.27;;;21.00;99.90;;;;;;5001919;28;20167;-75
2022/10/03 13:38:57;;;;;;;2.30;1.20;;;21.00;99.90;;;;;;4999227;28;20199;-74
2022/10/03 13:41:38;;;;;;;2.83;1.25;;;21.00;99.90;;;;;;4997485;28;20171;-72
2022/10/03 13:44:09;;;;;;;3.10;1.00;;;21.00;99.90;;;;;;5000360;28;20187;-72
2022/10/03 13:47:08;;;;;;;3.05;1.10;;;21.00;99.90;;;;;;4989162;28;20278;-75
2022/10/03 13:49:51;;;;;;;3.22;1.23;;;21.10;99.90;;;;;;4997686;28;20213;-74
2022/10/03 13:52:21;;;;;;;1.73;1.10;;;21.10;99.90;;;;;;5004239;28;20200;-74
2022/10/03 13:54:59;;;;;;;3.50;1.35;;;21.00;99.90;;;;;;4992407;28;20208;-74
2022/10/03 13:57:36;;;;;;;3.30;1.67;;;21.00;99.90;;;;;;4988367;28;20180;-73
2022/10/03 14:00:10;;;;;;;2.40;1.48;;;21.00;99.90;;;;;;5000093;28;20277;-72
2022/10/03 14:02:40;;;;;;;3.60;1.50;;;20.90;99.90;;;;;;4996971;28;21348;-74
2022/10/03 14:05:30;;;;;;;2.08;1.10;;;20.80;99.90;;;;;;4997670;28;20262;-73
2022/10/03 14:08:11;;;;;;;3.00;1.20;;;20.70;99.90;;;;;;4993245;28;20211;-74
2022/10/03 14:10:59;;;;;;;3.15;1.02;;;20.70;99.90;;;;;;4995111;28;20171;-73
2022/10/03 14:13:46;;;;;;;5.57;3.55;;;20.60;99.90;;;;;;4996858;28;20180;-73
2022/10/03 14:16:30;;;;;;;5.97;3.30;;;20.50;99.90;;;;;;4999208;28;20178;-74
2022/10/03 14:19:29;;;;;;;5.03;2.63;;;20.50;99.90;;;;;;5005524;28;20294;-73
2022/10/03 14:22:27;;;;;;;6.45;2.30;;;20.40;99.90;;;;;;4998767;28;20210;-74
2022/10/03 14:25:11;;;;;;;6.68;2.88;;;20.40;99.90;;;;;;4987356;28;20235;-74
2022/10/03 14:28:03;;;;;;;4.30;2.15;;;20.50;99.90;;;;;;5002145;28;20420;-73
2022/10/03 14:30:48;;;;;;;4.05;2.75;;;20.60;99.90;;;;;;5011508;28;20179;-73
2022/10/03 14:33:23;;;;;;;5.22;3.17;;;20.80;99.90;;;;;;5002876;28;20175;-74
2022/10/03 14:36:25;;;;;;;7.07;3.53;;;21.00;99.90;;;;;;5002371;28;20179;-73